»·PEaware :: AAL1228 KSMF-KSEA

AAL1228 :: KSMF-KSEA

FLIGHT INFORMATION

Flight Status: Arrived
Operator:
American Airlines
More flights by this operator :: More flights under this callsign
Pilot: Michael M. (12217)
Aircraft: BOEING 737-800
(B738)
More flights by this aircraft type
Origin: KSMF Sacramento Intl
United States
Destination: KSEA Seattle-Tacoma Intl
United States
More flights between these airports :: More routes between these airports
Route: RBL LMT BTH HAWKZ6
File this flight plan on PilotEdge
Remarks:
Altitude:
(Current/Filed)
36,000ft
Speed:
(Current/Filed)
410kts
Departed: 08-Dec-17 10:21 AM
Arrived: 08-Dec-17 11:56 AM
Distance/Time
Traveled:
527nm/1:34
Distance/Time
To Go:
Arrived

Flight Plot

Page will automatically refresh every two minutes.

Flight plan parsing failed; only flown route is shown


Map Options




Map Legend


Flown Route
Filed Route
Departure Airport
Arrival Airport
Navaid (VOR, NDB)
Fix

Horizontal Profiles

Position Reports

Time Latitude Longitude Heading Altitude Ground
Speed
08-Dec-17 09:45 38.695114 -121.596434 90 27ft 0kts
08-Dec-17 09:46 38.695114 -121.596434 90 27ft 0kts
08-Dec-17 09:47 38.695114 -121.596434 90 27ft 0kts
08-Dec-17 09:48 38.695114 -121.596434 90 27ft 0kts
08-Dec-17 09:49 38.695114 -121.596434 90 27ft 0kts
08-Dec-17 09:50 38.695114 -121.596434 90 27ft 0kts
08-Dec-17 09:51 38.695114 -121.596434 90 27ft 0kts
08-Dec-17 09:52 38.695114 -121.596434 90 27ft 0kts
08-Dec-17 09:53 38.695114 -121.596434 90 27ft 0kts
08-Dec-17 09:54 38.695114 -121.596434 90 27ft 0kts
08-Dec-17 09:55 38.695114 -121.596434 90 27ft 0kts
08-Dec-17 09:56 38.695114 -121.596434 90 27ft 0kts
08-Dec-17 09:57 38.695114 -121.596434 90 27ft 0kts
08-Dec-17 09:58 38.695114 -121.596434 90 27ft 0kts
08-Dec-17 09:59 38.695114 -121.596434 90 27ft 0kts
08-Dec-17 10:00 38.695114 -121.596434 90 27ft 0kts
08-Dec-17 10:01 38.695114 -121.596434 90 27ft 0kts
08-Dec-17 10:02 38.695114 -121.596434 90 27ft 0kts
08-Dec-17 10:03 38.695114 -121.596434 90 27ft 0kts
08-Dec-17 10:04 38.695114 -121.596434 90 27ft 0kts
08-Dec-17 10:05 38.695114 -121.596434 90 27ft 0kts
08-Dec-17 10:06 38.695114 -121.596434 90 27ft 0kts
08-Dec-17 10:07 38.695114 -121.596434 90 27ft 0kts
08-Dec-17 10:08 38.695114 -121.596434 90 27ft 0kts
08-Dec-17 10:09 38.695114 -121.596434 90 27ft 0kts
08-Dec-17 10:10 38.695114 -121.596434 90 27ft 0kts
08-Dec-17 10:11 38.695114 -121.596434 90 27ft 0kts
08-Dec-17 10:12 38.695114 -121.596434 90 27ft 0kts
08-Dec-17 10:13 38.695114 -121.596434 90 27ft 0kts
08-Dec-17 10:14 38.695114 -121.596434 90 27ft 0kts
08-Dec-17 10:15 38.695114 -121.596427 89 27ft 0kts
08-Dec-17 10:16 38.695114 -121.596428 89 27ft 0kts
08-Dec-17 10:17 38.694758 -121.595968 156 27ft 9kts
08-Dec-17 10:19 38.695531 -121.596000 357 27ft 11kts
08-Dec-17 10:20 38.696529 -121.598576 192 27ft 15kts
08-Dec-17 10:21 38.691607 -121.598689 181 26ft 19kts
08-Dec-17 10:22 38.685915 -121.598769 180 24ft 19kts
08-Dec-17 10:23 38.683816 -121.599866 269 24ft 0kts
08-Dec-17 10:24 38.683816 -121.599866 269 24ft 0kts
08-Dec-17 10:25 38.683816 -121.599866 269 24ft 0kts
08-Dec-17 10:26 38.683816 -121.600209 269 24ft 10kts
08-Dec-17 10:27 38.702737 -121.601229 0 398ft 172kts
08-Dec-17 10:28 38.761420 -121.600516 358 3976ft 199kts
08-Dec-17 10:29 38.822781 -121.603714 358 4016ft 256kts
08-Dec-17 10:30 38.895959 -121.606319 358 7006ft 268kts
08-Dec-17 10:31 38.966547 -121.626934 333 10374ft 283kts
08-Dec-17 10:32 39.041857 -121.674900 333 13105ft 322kts
08-Dec-17 10:33 39.122919 -121.725904 333 16341ft 337kts
08-Dec-17 10:34 39.195073 -121.802397 314 19322ft 350kts
08-Dec-17 10:35 39.280606 -121.865694 336 22152ft 367kts
08-Dec-17 10:36 39.378041 -121.912417 339 24743ft 383kts
08-Dec-17 10:37 39.479644 -121.958375 339 27197ft 395kts
08-Dec-17 10:38 39.582042 -122.004374 339 29912ft 390kts
08-Dec-17 10:39 39.682106 -122.049297 338 32230ft 386kts
08-Dec-17 10:40 39.782036 -122.094151 338 34269ft 382kts
08-Dec-17 10:41 39.881531 -122.138804 338 36065ft 379kts
08-Dec-17 10:42 39.983041 -122.184378 338 36541ft 402kts
08-Dec-17 10:43 40.094131 -122.229895 352 36535ft 439kts
08-Dec-17 10:44 40.216198 -122.208074 8 36529ft 451kts
08-Dec-17 10:45 40.339215 -122.177333 8 36529ft 451kts
08-Dec-17 10:46 40.461855 -122.146896 8 36523ft 451kts
08-Dec-17 10:46 40.564415 -122.121461 8 36521ft 451kts
08-Dec-17 10:48 40.708077 -122.085835 8 36521ft 451kts
08-Dec-17 10:49 40.827952 -122.056108 8 36521ft 451kts
08-Dec-17 10:50 40.947512 -122.026461 8 36521ft 451kts
08-Dec-17 10:50 41.048029 -122.001541 8 36521ft 453kts
08-Dec-17 10:52 41.180359 -121.968722 8 36550ft 454kts
08-Dec-17 10:52 41.283665 -121.943107 8 36622ft 454kts
08-Dec-17 10:54 41.427973 -121.907310 8 36631ft 454kts
08-Dec-17 10:54 41.531387 -121.881676 8 36634ft 454kts
08-Dec-17 10:55 41.652721 -121.851573 8 36629ft 454kts
08-Dec-17 10:56 41.775217 -121.821231 8 36630ft 454kts
08-Dec-17 10:57 41.899438 -121.790440 8 36632ft 454kts
08-Dec-17 10:58 42.022830 -121.759838 8 36633ft 454kts
08-Dec-17 10:59 42.144876 -121.730796 1 36617ft 452kts
08-Dec-17 11:00 42.268017 -121.754076 347 36631ft 449kts
08-Dec-17 11:01 42.390421 -121.783576 347 36632ft 449kts
08-Dec-17 11:02 42.512870 -121.813048 347 36631ft 449kts
08-Dec-17 11:03 42.635642 -121.842574 347 36631ft 449kts
08-Dec-17 11:04 42.758138 -121.872049 348 36631ft 449kts
08-Dec-17 11:05 42.880749 -121.901543 347 36634ft 448kts
08-Dec-17 11:06 43.003550 -121.931098 348 36629ft 449kts
08-Dec-17 11:07 43.125641 -121.960476 348 36624ft 449kts
08-Dec-17 11:08 43.248065 -121.989934 348 36609ft 449kts
08-Dec-17 11:09 43.370671 -122.019435 348 36609ft 449kts
08-Dec-17 11:10 43.493532 -122.049006 348 36635ft 449kts
08-Dec-17 11:11 43.616324 -122.078554 348 36650ft 449kts
08-Dec-17 11:12 43.739039 -122.108092 348 36649ft 449kts
08-Dec-17 11:13 43.862135 -122.137708 348 36650ft 449kts
08-Dec-17 11:14 43.984790 -122.167241 348 36647ft 449kts
08-Dec-17 11:15 44.107097 -122.196671 348 36637ft 449kts
08-Dec-17 11:16 44.229582 -122.226152 348 36624ft 449kts
08-Dec-17 11:17 44.351525 -122.255488 348 35934ft 440kts
08-Dec-17 11:18 44.473167 -122.284778 348 32101ft 450kts
08-Dec-17 11:19 44.597073 -122.314590 348 27859ft 460kts
08-Dec-17 11:20 44.717352 -122.343574 348 24556ft 442kts
08-Dec-17 11:21 44.827689 -122.370103 348 24576ft 388kts
08-Dec-17 11:22 44.934465 -122.395831 348 24576ft 391kts
08-Dec-17 11:23 45.040866 -122.421431 348 24576ft 391kts
08-Dec-17 11:24 45.145812 -122.446683 348 24574ft 390kts
08-Dec-17 11:25 45.252734 -122.472418 348 24569ft 390kts
08-Dec-17 11:26 45.359479 -122.498102 348 24567ft 390kts
08-Dec-17 11:27 45.466265 -122.523796 348 24566ft 391kts
08-Dec-17 11:28 45.573169 -122.549517 348 24570ft 390kts
08-Dec-17 11:29 45.680007 -122.575221 348 24572ft 390kts
08-Dec-17 11:30 45.786815 -122.601127 348 24573ft 390kts
08-Dec-17 11:31 45.893384 -122.627582 348 24575ft 390kts
08-Dec-17 11:32 46.000039 -122.654060 347 24570ft 390kts
08-Dec-17 11:33 46.104951 -122.679916 348 23618ft 372kts
08-Dec-17 11:34 46.207414 -122.699920 349 22559ft 379kts
08-Dec-17 11:35 46.312239 -122.716493 352 22558ft 380kts
08-Dec-17 11:36 46.416713 -122.725126 355 21717ft 373kts
08-Dec-17 11:37 46.518907 -122.729284 356 19320ft 363kts
08-Dec-17 11:38 46.617353 -122.732896 356 17080ft 351kts
08-Dec-17 11:39 46.712947 -122.736358 356 14909ft 340kts
08-Dec-17 11:40 46.802786 -122.716790 32 13279ft 334kts
08-Dec-17 11:41 46.874398 -122.634180 37 13269ft 312kts
08-Dec-17 11:42 46.942238 -122.560250 22 11709ft 304kts
08-Dec-17 11:43 47.020858 -122.525435 12 10518ft 291kts
08-Dec-17 11:44 47.097690 -122.496042 2 10019ft 285kts
08-Dec-17 11:45 47.175172 -122.482663 2 10010ft 286kts
08-Dec-17 11:46 47.253665 -122.470282 1 9996ft 274kts
08-Dec-17 11:47 47.326574 -122.459211 1 9481ft 262kts
08-Dec-17 11:48 47.397816 -122.454976 356 7809ft 268kts
08-Dec-17 11:49 47.474232 -122.455010 359 5906ft 266kts
08-Dec-17 11:50 47.546476 -122.452137 0 4285ft 264kts
08-Dec-17 11:51 47.613431 -122.450552 0 4005ft 214kts
08-Dec-17 11:52 47.669992 -122.449107 0 4023ft 201kts
08-Dec-17 11:53 47.718963 -122.425412 65 3993ft 185kts
08-Dec-17 11:54 47.709033 -122.368063 150 3821ft 144kts
08-Dec-17 11:55 47.674012 -122.341988 153 4018ft 145kts
08-Dec-17 11:56 47.637989 -122.316929 175 3960ft 146kts
08-Dec-17 11:57 47.602314 -122.316718 180 3167ft 139kts
08-Dec-17 11:58 47.565325 -122.317001 180 2399ft 136kts
08-Dec-17 11:59 47.528090 -122.317301 180 1652ft 133kts
08-Dec-17 12:00 47.491342 -122.317599 180 934ft 132kts
08-Dec-17 12:01 47.457736 -122.318082 183 323ft 28kts

Navigation Log

Ident Type
Flight plan parsing failed, navigation log unavailable